Nearby METAR Reports

 

KSJC - San Jose, California, USA
Distance from station: NØ 14km
Opdateret: 23/04/2018 12:53
Klart
Klart
 Vind retning calm
Vind: Vindstille
Temperatur: 13°C
Dugpunkt: 11°C
Fugtighed: 88%
Barometer: 1013.9 hPa
Clouds: Klart
Visibility: 16 km
2018/04/23 10:53 KSJC 231053Z AUTO 00000KT 10SM CLR 13/11 A2994 RMK AO2 SLP137 T01330106 $
KNUQ - Moffett Nas/Mtn, California, USA
Distance from station: N 14km
Opdateret: 23/04/2018 12:56
Klart
Klart
 Vind retning calm
Vind: Vindstille
Temperatur: 12°C
Dugpunkt: 10°C
Fugtighed: 88%
Barometer: 1013.9 hPa
Clouds: Klart
Visibility: 16 km
2018/04/23 10:56 KNUQ 231056Z 00000KT 10SM CLR 12/10 A2994 RMK AO2 SLP142 T01220100
 
KPAO - Palo Alto, California, USA
Distance from station: NNV 23km
Opdateret: 23/04/2018 05:47
NOT Current
Few Clouds
Few Clouds
 Vind retning varies
Vind: varies 7 km/h
Barometer: 1012.9 hPa
Clouds: Few Clouds
Visibility: 16 km
Cloud details: Few Clouds 5486 m
2018/04/23 03:47 KPAO 230347Z VRB04KT 10SM FEW180 A2991 RMK LAST
KRHV - San Jose/Reid, California, USA
Distance from station: ØNØ 19km
Opdateret: 23/04/2018 06:50
NOT Current
Klart
Klart
 Vind retning calm
Vind: Vindstille
Temperatur: 18°C
Dugpunkt: 9°C
Fugtighed: 56%
Barometer: 1013.2 hPa
Clouds: Klart
Visibility: 16 km
2018/04/23 04:50 KRHV 230450Z 00000KT 10SM SKC 18/09 A2992 RMK LAST
 
KOAK - Oakland, California, USA
Distance from station: NNV 50km
Opdateret: 23/04/2018 12:53
Klart
Klart
 Vind retning calm
Vind: Vindstille
Temperatur: 12°C
Dugpunkt: 10°C
Fugtighed: 88%
Barometer: 1014.2 hPa
Clouds: Klart
Visibility: 16 km
2018/04/23 10:53 KOAK 231053Z 00000KT 10SM CLR 12/10 A2995 RMK AO2 SLP140 T01170100
KSQL - San Carlos Airpo, California, USA
Distance from station: NV 34km
Opdateret: 23/04/2018 13:15
Klart
Klart
 Vind retning VNV
Vind: VNV 6 km/h
Temperatur: 13°C
Dugpunkt: 8°C
Fugtighed: 72%
Barometer: 1014.2 hPa
Clouds: Klart
Visibility: 16 km
2018/04/23 11:15 KSQL 231115Z AUTO 29003KT 10SM CLR 13/08 A2995 RMK AO2
 
KSFO - San Francisco, California, USA
Distance from station: NV 49km
Opdateret: 23/04/2018 12:56
Delvist skyet
Delvist skyet
 Vind retning V
Vind: V 13 km/h
Temperatur: 12°C
Dugpunkt: 8°C
Fugtighed: 77%
Barometer: 1013.9 hPa
Clouds: Delvist skyet
Visibility: 16 km
Cloud details: Delvist skyet 6096 m
2018/04/23 10:56 KSFO 231056Z 28007KT 10SM SCT200 12/08 A2994 RMK AO2 SLP139 T01170078
KE16 - San Martin, California, USA
Distance from station: ØSØ 43km
Opdateret: 23/04/2018 13:15
Klart
Klart
 Vind retning calm
Vind: Vindstille
Temperatur: 11°C
Dugpunkt: 8°C
Fugtighed: 82%
Barometer: 1014.9 hPa
Clouds: Klart
Visibility: 16 km
2018/04/23 11:15 KE16 231115Z AUTO 00000KT 10SM CLR 11/08 A2997 RMK AO2
 
KWVI - Watsonville, California, USA
Distance from station: SSØ 44km
Opdateret: 23/04/2018 12:53
Klart
Klart
 Vind retning calm
Vind: Vindstille
Temperatur: 8°C
Dugpunkt: 7°C
Fugtighed: 93%
Barometer: 1014.6 hPa
Clouds: Klart
Visibility: 13 km
2018/04/23 10:53 KWVI 231053Z AUTO 00000KT 8SM CLR 08/07 A2996 RMK AO2 SLP145 T00780072 TSNO $
KHAF - Half Moon Bay, California, USA
Distance from station: VNV 50km
Opdateret: 23/04/2018 13:15
Mist, Overskyet
Mist, Overskyet
 Vind retning calm
Vind: Vindstille
Temperatur: 7°C
Dugpunkt: 5°C
Fugtighed: 87%
Barometer: 1014.9 hPa
Oversigt: Mist
Clouds: Overskyet
Visibility: 8 km
Cloud details: Overskyet 91 m
2018/04/23 11:15 KHAF 231115Z AUTO 00000KT 5SM BR OVC003 07/05 A2997 RMK AO2
 
KHWD - Hayward, California, USA
Distance from station: N 44km
Opdateret: 23/04/2018 12:54
Klart
Klart
 Vind retning calm
Vind: Vindstille
Temperatur: 13°C
Dugpunkt: 8°C
Fugtighed: 72%
Barometer: 1013.9 hPa
Clouds: Klart
Visibility: 16 km
2018/04/23 10:54 KHWD 231054Z 00000KT 10SM CLR 13/08 A2994 RMK AO2 SLP147 T01330078 $
KLVK - Livermore, California, USA
Distance from station: NNØ 51km
Opdateret: 23/04/2018 12:53
Klart
Klart
 Vind retning calm
Vind: Vindstille
Temperatur: 13°C
Dugpunkt: 11°C
Fugtighed: 88%
Barometer: 1013.9 hPa
Clouds: Klart
Visibility: 16 km
2018/04/23 10:53 KLVK 231053Z AUTO 00000KT 10SM CLR 13/11 A2994 RMK AO2 SLP134 T01280106